Flight Track Log - Related Links

Times and Time Zones

All times are in EST time to prevent confusion due to time zone crossing. See the ASQ5740 flight status page for this flight to view local times or setup timezone preferences in your user account.

Time Position Orientation Groundspeed Altitude Reporting Facility
EST Latitude Longitude Course Direction KTS MPH feet Rate Location/Type
Thu 03:02:30 PM 34.8344 -82.2067 71° East 216 249 27,000  Level Atlanta Center
Thu 03:03:30 PM 34.8794 -82.1397 51° Northeast 288 331 6,500 -8,950 Descending Atlanta Center
Thu 03:04:00 PM 35.2185 -81.8651 North  Level Estimated
Thu 03:04:30 PM 34.9325 -82.0625 50° Northeast 295 339 9,100  Level Atlanta Center
Thu 03:05:00 PM 35.2991 -81.7762 80° East  Level Estimated
Thu 03:05:30 PM 34.9958 -81.9825 46° Northeast 322 371 10,000  Level Atlanta Center
Thu 03:06:00 PM 35.3796 -81.6871 71° East  Level Estimated
Thu 03:06:30 PM 35.0847 -81.9319 25° Northeast 347 399 10,300  Level Atlanta Center
Thu 03:07:30 PM 35.1933 -81.9394 357° North 347 399 12,500 2,650 Climbing Atlanta Center
Thu 03:08:30 PM 35.2825 -81.9017 19° North 347 399 15,600 2,400 Climbing Atlanta Center
Thu 03:09:30 PM 35.3286 -81.7961 62° Northeast 321 369 17,300 1,400 Climbing Atlanta Center
Thu 03:10:30 PM 35.3744 -81.6878 63° Northeast 328 377 18,400 1,300 Climbing Atlanta Center
Thu 03:11:30 PM 35.4203 -81.5717 64° Northeast 349 402 19,900 1,400 Climbing Atlanta Center
Thu 03:12:30 PM 35.4681 -81.4608 62° Northeast 363 418 21,200 1,200 Climbing Atlanta Center
Thu 03:13:30 PM 35.5156 -81.3392 64° Northeast 379 436 22,300 1,100 Climbing Atlanta Center
Thu 03:14:30 PM 35.5603 -81.2050 68° East 401 461 23,400 1,150 Climbing Atlanta Center
Thu 03:15:30 PM 35.6097 -81.0833 63° Northeast 406 467 24,600 1,050 Climbing Atlanta Center
Thu 03:16:30 PM 35.6608 -80.9561 64° Northeast 406 467 25,500 900 Climbing Atlanta Center
Thu 03:17:30 PM 35.7078 -80.8342 65° Northeast 399 459 26,400 750 Climbing Atlanta Center
Thu 03:18:30 PM 35.7606 -80.7042 63° Northeast 404 465 27,000 300 Climbing Atlanta Center
Thu 03:19:30 PM 35.8072 -80.5819 65° Northeast 414 476 27,000  Level Atlanta Center
Thu 03:20:30 PM 35.8639 -80.4439 63° Northeast 433 498 27,000  Level Atlanta Center
Thu 03:22:01 PM 35.9469 -80.2386 63° Northeast 438 504 27,000  Level Washington Center
Thu 03:23:01 PM 36.0003 -80.1006 64° Northeast 438 504 27,000  Level Washington Center
Thu 03:23:59 PM 36.0531 -79.9700 63° Northeast 433 498 27,000  Level Washington Center
Thu 03:25:00 PM 36.1178 -79.8553 55° Northeast 418 481 27,000  Level Washington Center
Thu 03:26:00 PM 36.1844 -79.7406 54° Northeast 414 476 27,000  Level Washington Center
Thu 03:27:01 PM 36.2511 -79.6153 57° Northeast 403 464 27,000  Level Washington Center
Thu 03:28:01 PM 36.3108 -79.5125 54° Northeast 403 464 27,000  Level Washington Center
Thu 03:28:59 PM 36.3772 -79.3947 55° Northeast 398 458 27,000  Level Washington Center
Thu 03:30:00 PM 36.4394 -79.2764 57° Northeast 398 458 27,000  Level Washington Center
Thu 03:31:01 PM 36.4989 -79.1733 54° Northeast 398 458 27,000 -49 Level Washington Center
Thu 03:32:02 PM 36.5694 -79.0497 55° Northeast 398 458 26,900 -610 Descending Washington Center
Thu 03:32:59 PM 36.6375 -78.9283 55° Northeast 398 458 25,800 -974 Descending Washington Center
Thu 03:33:59 PM 36.7056 -78.7992 57° Northeast 434 499 25,000 -397 Descending Washington Center
Thu 03:35:00 PM 36.7736 -78.6750 56° Northeast 434 499 25,000  Level Washington Center
Thu 03:36:00 PM 36.8414 -78.5506 56° Northeast 434 499 25,000  Level Washington Center
Thu 03:37:01 PM 36.9089 -78.4336 54° Northeast 429 494 25,000  Level Washington Center
Thu 03:38:01 PM 36.9656 -78.3267 56° Northeast 423 487 25,000  Level Washington Center
Thu 03:39:01 PM 37.0372 -78.2094 53° Northeast 418 481 25,000  Level Washington Center
Thu 03:39:59 PM 37.1431 -78.1297 31° Northeast 401 461 25,000 -51 Level Washington Center
Thu 03:40:59 PM 37.2386 -78.0519 33° Northeast 401 461 24,900 -545 Descending Washington Center
Thu 03:42:00 PM 37.3383 -77.9767 31° Northeast 407 468 23,900 -1,033 Descending Washington Center
Thu 03:43:01 PM 37.4419 -77.8936 32° Northeast 426 490 22,800 -942 Descending Washington Center
Thu 03:44:01 PM 37.5519 -77.8158 29° Northeast 438 504 22,000 -864 Descending Washington Center
Thu 03:44:59 PM 37.6594 -77.7508 26° Northeast 438 504 21,100 -1,916 Descending Washington Center
Thu 03:46:00 PM 37.7650 -77.6906 24° Northeast 433 498 18,200 -2,508 Descending Washington Center
Thu 03:47:01 PM 37.8617 -77.6356 24° Northeast 407 468 16,000 -2,218 Descending Washington Center
Thu 03:47:59 PM 37.9522 -77.5828 25° Northeast 382 440 13,800 -1,916 Descending Washington Center
Thu 03:49:00 PM 38.0197 -77.5397 27° Northeast 355 409 12,200 -1,686 Descending Washington Center
Thu 03:50:00 PM 38.1167 -77.4867 23° Northeast 325 374 10,400 -1,091 Descending Washington Center
Thu 03:51:01 PM 38.1944 -77.4411 25° Northeast 312 359 10,000 -298 Descending Washington Center
Thu 03:52:01 PM 38.2703 -77.3928 27° Northeast 307 353 9,800 -966 Descending Washington Center
Thu 03:52:59 PM 38.3481 -77.3550 21° North 302 348 8,100 -1,412 Descending Washington Center
Thu 03:54:00 PM 38.4250 -77.3594 357° North 286 329 7,000 -1,041 Descending Washington Center
Thu 03:55:00 PM 38.5022 -77.3611 359° North 281 323 6,000 -942 Descending Washington Center
Thu 03:56:01 PM 38.5792 -77.3683 356° North 270 311 5,100 -545 Descending Washington Center
Thu 03:57:01 PM 38.6522 -77.3647 North 270 311 4,900 -100 Descending Washington Center
Thu 03:58:01 PM 38.7294 -77.3614 North 270 311 4,900 -388 Level Washington Center
Thu 03:59:20 PM 38.8333 -77.3500 North 264 304 4,000 -386 Descending Potomac TRACON
Thu 04:00:21 PM 38.9000 -77.3500 360° North 265 305 4,000 -331 Level Potomac TRACON
Thu 04:02:21 PM 39.0500 -77.3500 360° North 257 296 3,000 -331 Descending Potomac TRACON
Thu 04:03:22 PM 39.1167 -77.3500 360° North 187 215 3,000 -298 Level Potomac TRACON
Thu 04:04:22 PM 39.1333 -77.3833 303° West 182 209 2,400 -500 Descending Potomac TRACON
Thu 04:05:22 PM 39.1000 -77.4167 218° Southwest 162 186 2,000 -250 Descending Potomac TRACON
Thu 04:06:22 PM 39.0500 -77.4333 195° South 159 183 1,900 -250 Descending Potomac TRACON
Thu 04:07:22 PM 39.0167 -77.4333 180° South 149 171 1,500 -545 Descending Potomac TRACON
Thu 04:08:23 PM 38.9667 -77.4333 180° South 137 158 800 -689 Descending Potomac TRACON

Login

Don't have an account? Register now (free) for customized features, flight alerts, and more!